Time;durP1;ratioP1;P1;durP2;ratioP2;P2;SDS_P1;SDS_P2;PMS_P1;PMS_P2;Temp;Humidity;BMP_temperature;BMP_pressure;BME280_temperature;BME280_humidity;BME280_pressure;Samples;Min_cycle;Max_cycle;Signal;HPM_P1;HPM_P2
2021/05/26 00:02:55;;;;;;;2.03;0.65;;;14.20;66.00;;;;;;5081345;28;27379;-68
2021/05/26 00:05:46;;;;;;;1.25;0.60;;;14.10;65.50;;;;;;5083272;28;27414;-66
2021/05/26 00:08:39;;;;;;;3.08;0.98;;;14.10;65.90;;;;;;5081847;28;27477;-67
2021/05/26 00:11:52;;;;;;;1.60;0.80;;;14.10;66.00;;;;;;5085214;28;27596;-67
2021/05/26 00:14:42;;;;;;;0.90;0.68;;;14.10;64.70;;;;;;5085525;28;27447;-67
2021/05/26 00:17:33;;;;;;;1.98;0.80;;;14.10;66.20;;;;;;5085133;28;27381;-68
2021/05/26 00:20:47;;;;;;;3.88;1.00;;;14.10;62.90;;;;;;5085072;28;27596;-67
2021/05/26 00:23:39;;;;;;;1.38;0.90;;;14.00;65.20;;;;;;5084515;28;27562;-67
2021/05/26 00:26:30;;;;;;;2.75;1.23;;;14.00;65.30;;;;;;5083640;28;27426;-67
2021/05/26 00:29:21;;;;;;;2.67;1.25;;;14.00;62.30;;;;;;5084707;28;27475;-67
2021/05/26 00:32:12;;;;;;;3.53;0.93;;;14.00;62.60;;;;;;5084625;28;27479;-68
2021/05/26 00:35:02;;;;;;;4.38;0.88;;;14.00;65.30;;;;;;5085285;28;27372;-68
2021/05/26 00:37:53;;;;;;;1.45;0.88;;;14.00;64.40;;;;;;5085138;28;27430;-67
2021/05/26 00:40:56;;;;;;;1.98;0.73;;;13.90;65.80;;;;;;5081657;28;27441;-67
2021/05/26 00:43:47;;;;;;;3.60;1.23;;;13.90;66.20;;;;;;5081810;28;27309;-67
2021/05/26 00:46:42;;;;;;;2.08;0.95;;;13.90;63.20;;;;;;5079999;28;27482;-67
2021/05/26 00:50:13;;;;;;;4.93;1.13;;;13.90;63.00;;;;;;5084401;28;27473;-67
2021/05/26 00:53:45;;;;;;;1.73;0.93;;;13.90;64.40;;;;;;5082282;28;27939;-66
2021/05/26 00:57:12;;;;;;;2.63;0.70;;;13.90;66.00;;;;;;5083607;28;27376;-68
2021/05/26 01:00:50;;;;;;;2.22;0.88;;;13.90;66.30;;;;;;5096654;28;27593;-67
2021/05/26 01:04:20;;;;;;;1.35;0.70;;;13.90;65.90;;;;;;5083995;28;27583;-68
2021/05/26 01:08:02;;;;;;;1.67;0.88;;;13.90;65.90;;;;;;5081331;28;27371;-69
2021/05/26 01:11:33;;;;;;;5.20;0.75;;;14.00;66.10;;;;;;5080403;28;27528;-68
2021/05/26 01:15:04;;;;;;;4.20;0.82;;;14.00;66.40;;;;;;5080518;28;27396;-68
2021/05/26 01:18:32;;;;;;;5.07;0.82;;;14.00;66.70;;;;;;5080291;28;27478;-69
2021/05/26 01:21:48;;;;;;;2.65;0.93;;;14.00;67.00;;;;;;5081316;28;27840;-69
2021/05/26 01:25:15;;;;;;;2.92;0.75;;;14.00;67.20;;;;;;5080394;28;27328;-68
2021/05/26 01:28:12;;;;;;;4.13;0.88;;;14.00;67.30;;;;;;5084048;28;27423;-68
2021/05/26 01:31:14;;;;;;;2.90;1.17;;;14.00;67.40;;;;;;5066038;28;27371;-68
2021/05/26 01:34:05;;;;;;;1.75;0.60;;;14.00;67.70;;;;;;5084038;28;27380;-68
2021/05/26 01:36:59;;;;;;;2.35;0.88;;;14.00;67.80;;;;;;5084188;28;27344;-69
2021/05/26 01:39:59;;;;;;;1.90;0.68;;;14.00;68.40;;;;;;5084272;28;27442;-68
2021/05/26 01:42:49;;;;;;;3.00;0.93;;;13.90;68.40;;;;;;5082541;28;27464;-68
2021/05/26 01:45:41;;;;;;;1.02;0.73;;;13.90;68.50;;;;;;5079787;28;27456;-68
2021/05/26 01:48:33;;;;;;;1.15;0.73;;;13.90;68.60;;;;;;5083785;28;27376;-68
2021/05/26 01:51:24;;;;;;;2.85;1.10;;;13.90;68.70;;;;;;5084206;28;27327;-68
2021/05/26 01:54:17;;;;;;;1.67;0.63;;;13.90;68.80;;;;;;5080451;28;27320;-67
2021/05/26 01:57:13;;;;;;;2.45;0.70;;;13.90;68.80;;;;;;5082869;28;27491;-67
2021/05/26 02:00:21;;;;;;;2.67;0.75;;;13.80;68.80;;;;;;5079441;28;27419;-67
2021/05/26 02:03:17;;;;;;;2.78;0.80;;;13.80;69.10;;;;;;5080454;28;27510;-67
2021/05/26 02:06:08;;;;;;;1.42;0.80;;;13.80;69.20;;;;;;5083730;28;27326;-66
2021/05/26 02:08:59;;;;;;;1.88;0.85;;;13.80;69.30;;;;;;5064996;28;27490;-67
2021/05/26 02:15:06;;;;;;;3.17;0.80;;;13.70;69.40;;;;;;5079732;28;27328;-67
2021/05/26 02:18:00;;;;;;;1.95;0.80;;;13.70;69.60;;;;;;5079754;28;27379;-67
2021/05/26 02:20:50;;;;;;;2.10;0.98;;;13.70;69.50;;;;;;5083403;28;27431;-68
2021/05/26 02:23:40;;;;;;;3.83;0.80;;;13.70;69.90;;;;;;5080315;28;27422;-67
2021/05/26 02:26:31;;;;;;;3.05;0.82;;;13.70;69.90;;;;;;5082781;28;27430;-66
2021/05/26 02:29:22;;;;;;;1.95;0.90;;;13.60;70.00;;;;;;5079091;28;27403;-68
2021/05/26 02:32:13;;;;;;;1.17;0.75;;;13.60;70.20;;;;;;5080330;28;27331;-66
2021/05/26 02:35:29;;;;;;;4.65;0.70;;;13.60;70.20;;;;;;5079646;28;27383;-69
2021/05/26 02:38:14;;;;;;;1.33;0.60;;;13.60;70.40;;;;;;5082254;28;27301;-70
2021/05/26 02:41:05;;;;;;;1.02;0.70;;;13.60;70.50;;;;;;5079430;28;27427;-69
2021/05/26 02:44:01;;;;;;;4.22;0.63;;;13.60;70.60;;;;;;5083092;28;27387;-68
2021/05/26 02:47:07;;;;;;;2.55;0.85;;;13.60;70.60;;;;;;5079469;28;27471;-68
2021/05/26 02:50:07;;;;;;;1.42;0.80;;;13.50;70.60;;;;;;5080866;28;27534;-69
2021/05/26 02:53:00;;;;;;;3.25;0.60;;;13.50;70.90;;;;;;5079181;28;27375;-68
2021/05/26 02:55:57;;;;;;;3.63;0.70;;;13.50;71.00;;;;;;5079047;28;27506;-68
2021/05/26 02:59:07;;;;;;;2.38;0.90;;;13.50;71.00;;;;;;5082941;28;27388;-69
2021/05/26 03:02:18;;;;;;;1.63;0.93;;;13.50;71.30;;;;;;5082943;28;27458;-69
2021/05/26 03:05:25;;;;;;;2.13;0.70;;;13.50;71.40;;;;;;5079914;28;27427;-69
2021/05/26 03:08:24;;;;;;;3.78;0.85;;;13.40;71.40;;;;;;5079589;28;27927;-68
2021/05/26 03:11:16;;;;;;;2.80;0.80;;;13.40;71.60;;;;;;5086272;28;27503;-68
2021/05/26 03:14:22;;;;;;;1.90;0.90;;;13.40;71.60;;;;;;5083349;28;27418;-69
2021/05/26 03:17:39;;;;;;;2.08;0.80;;;13.40;71.70;;;;;;5082869;28;27313;-68
2021/05/26 03:20:43;;;;;;;4.30;0.80;;;13.40;71.70;;;;;;5084833;28;27833;-70
2021/05/26 03:23:51;;;;;;;1.75;0.75;;;13.40;72.10;;;;;;5082701;28;27352;-69
2021/05/26 03:26:48;;;;;;;4.28;0.88;;;13.40;72.00;;;;;;5084123;28;27511;-69
2021/05/26 03:29:39;;;;;;;3.08;0.80;;;13.40;72.30;;;;;;5085407;28;27368;-69
2021/05/26 03:32:33;;;;;;;6.25;0.80;;;13.30;72.40;;;;;;5086073;28;27840;-70
2021/05/26 03:35:26;;;;;;;3.20;1.55;;;13.30;72.40;;;;;;5081890;28;27458;-70
2021/05/26 03:38:17;;;;;;;2.47;0.77;;;13.30;72.70;;;;;;5086103;28;27423;-69
2021/05/26 03:41:22;;;;;;;2.22;0.85;;;13.30;72.80;;;;;;5082685;28;27344;-69
2021/05/26 03:44:13;;;;;;;1.90;0.82;;;13.30;73.10;;;;;;5085616;28;27340;-70
2021/05/26 03:47:04;;;;;;;4.63;0.88;;;13.30;73.10;;;;;;5086052;28;27419;-68
2021/05/26 03:49:56;;;;;;;4.45;1.10;;;13.20;73.40;;;;;;5081852;28;27422;-69
2021/05/26 03:52:51;;;;;;;2.55;1.08;;;13.20;73.70;;;;;;5082732;28;27482;-69
2021/05/26 03:55:43;;;;;;;4.13;1.00;;;13.10;73.80;;;;;;5081938;28;27837;-69
2021/05/26 03:58:56;;;;;;;4.47;1.05;;;13.10;74.00;;;;;;5085327;28;27489;-68
2021/05/26 04:01:53;;;;;;;3.42;1.33;;;13.10;74.40;;;;;;5082525;28;27399;-69
2021/05/26 04:04:43;;;;;;;1.60;1.00;;;13.10;74.40;;;;;;5085535;28;27485;-69
2021/05/26 04:07:41;;;;;;;4.13;1.20;;;13.00;74.60;;;;;;5081444;28;27443;-68
2021/05/26 04:10:49;;;;;;;2.88;1.10;;;13.00;74.80;;;;;;5082004;28;27391;-69
2021/05/26 04:14:05;;;;;;;5.25;1.10;;;13.00;74.60;;;;;;5082256;28;27409;-68
2021/05/26 04:17:24;;;;;;;1.85;1.20;;;12.90;74.90;;;;;;5081999;28;27482;-69
2021/05/26 04:20:31;;;;;;;2.38;1.05;;;12.90;74.30;;;;;;5080706;28;27495;-69
2021/05/26 04:23:22;;;;;;;4.32;1.20;;;12.90;75.20;;;;;;5081932;28;27309;-69
2021/05/26 04:26:27;;;;;;;1.58;0.80;;;12.90;75.50;;;;;;5082743;28;27474;-68
2021/05/26 04:29:19;;;;;;;3.30;1.20;;;12.90;75.70;;;;;;5085310;28;27336;-68
2021/05/26 04:32:13;;;;;;;3.20;1.45;;;12.90;75.30;;;;;;5081809;28;27336;-69
2021/05/26 04:35:03;;;;;;;3.13;1.08;;;12.90;74.30;;;;;;5081929;28;27397;-68
2021/05/26 04:37:54;;;;;;;2.60;1.38;;;12.90;74.50;;;;;;5084856;28;27341;-67
2021/05/26 04:40:51;;;;;;;4.13;2.00;;;12.90;75.00;;;;;;5085007;28;27434;-69
2021/05/26 04:43:42;;;;;;;1.88;1.00;;;12.90;75.40;;;;;;5081033;28;27421;-69
2021/05/26 04:46:55;;;;;;;3.65;1.45;;;12.90;74.70;;;;;;5080822;28;27407;-69
2021/05/26 04:49:50;;;;;;;2.28;1.00;;;12.80;74.90;;;;;;5084555;28;27424;-69
2021/05/26 04:52:42;;;;;;;1.98;0.93;;;12.80;75.70;;;;;;5084745;28;27372;-68
2021/05/26 04:55:37;;;;;;;2.55;0.93;;;12.80;76.30;;;;;;5084745;28;27401;-69
2021/05/26 04:58:48;;;;;;;2.25;1.00;;;12.80;76.50;;;;;;5081381;28;27438;-69
2021/05/26 05:01:46;;;;;;;3.30;1.20;;;12.90;76.70;;;;;;5085110;28;27404;-69
2021/05/26 05:04:52;;;;;;;3.38;1.27;;;12.90;76.90;;;;;;5081240;28;27412;-70
2021/05/26 05:07:45;;;;;;;3.00;1.02;;;12.90;77.00;;;;;;5083846;28;27356;-69
2021/05/26 05:10:38;;;;;;;4.45;1.02;;;12.90;77.10;;;;;;5084065;28;27454;-68
2021/05/26 05:13:45;;;;;;;8.30;1.65;;;12.90;77.40;;;;;;5069392;28;27513;-69
2021/05/26 05:16:36;;;;;;;2.63;1.17;;;12.90;77.10;;;;;;5084184;28;27420;-68
2021/05/26 05:19:27;;;;;;;6.22;1.20;;;13.00;76.50;;;;;;5084691;28;27390;-69
2021/05/26 05:22:17;;;;;;;3.58;1.13;;;13.00;77.30;;;;;;5084506;28;27402;-69
2021/05/26 05:25:30;;;;;;;1.95;1.17;;;13.00;77.00;;;;;;5084451;28;27454;-69
2021/05/26 05:28:24;;;;;;;3.45;2.95;;;13.00;76.50;;;;;;5083328;28;27553;-69
2021/05/26 05:31:14;;;;;;;2.63;1.60;;;13.00;76.30;;;;;;5083557;28;27333;-69
2021/05/26 05:34:12;;;;;;;4.75;2.30;;;13.00;76.40;;;;;;5083397;28;27565;-69
2021/05/26 05:37:18;;;;;;;3.22;2.08;;;13.00;76.50;;;;;;5084345;28;27415;-69
2021/05/26 05:40:31;;;;;;;5.75;1.67;;;13.00;77.70;;;;;;5111488;27;27683;-68
2021/05/26 05:43:27;;;;;;;3.15;1.45;;;13.00;76.90;;;;;;5084300;28;27425;-69
2021/05/26 05:46:33;;;;;;;2.30;1.45;;;13.00;77.30;;;;;;5084331;28;27388;-69
2021/05/26 05:49:30;;;;;;;2.58;1.25;;;13.00;78.00;;;;;;5082651;28;27341;-70
2021/05/26 05:52:21;;;;;;;8.55;2.95;;;13.00;78.20;;;;;;5084020;28;27343;-70
2021/05/26 05:55:18;;;;;;;5.88;3.20;;;13.00;77.60;;;;;;5084148;28;27472;-69
2021/05/26 05:58:11;;;;;;;3.90;1.65;;;13.10;77.50;;;;;;5083962;28;27388;-70
2021/05/26 06:01:02;;;;;;;4.75;1.60;;;13.10;77.80;;;;;;5083628;28;27399;-70
2021/05/26 06:04:00;;;;;;;3.70;2.25;;;13.10;78.00;;;;;;5083974;28;27465;-70
2021/05/26 06:06:50;;;;;;;3.70;2.00;;;13.10;78.10;;;;;;5083051;28;27411;-70
2021/05/26 06:09:41;;;;;;;4.40;1.48;;;13.10;78.30;;;;;;5083730;28;27355;-69
2021/05/26 06:12:32;;;;;;;3.55;1.85;;;13.10;77.60;;;;;;5083877;28;27483;-69
2021/05/26 06:15:24;;;;;;;4.97;2.03;;;13.10;78.00;;;;;;5084102;28;27438;-70
2021/05/26 06:18:09;;;;;;;4.80;1.60;;;13.10;79.00;;;;;;5083651;28;28006;-71
2021/05/26 06:20:59;;;;;;;5.60;1.48;;;13.10;78.50;;;;;;5083982;28;27411;-70
2021/05/26 06:24:05;;;;;;;3.03;1.45;;;13.10;78.30;;;;;;5083978;28;27428;-70
2021/05/26 06:26:56;;;;;;;3.47;1.27;;;13.10;78.50;;;;;;5080826;28;27619;-69
2021/05/26 06:29:47;;;;;;;6.25;1.35;;;13.10;78.50;;;;;;5083262;28;27861;-69
2021/05/26 06:32:59;;;;;;;7.55;1.75;;;13.10;79.00;;;;;;5080135;28;27535;-69
2021/05/26 06:35:57;;;;;;;3.53;1.27;;;13.20;79.50;;;;;;5083369;28;27337;-70
2021/05/26 06:39:24;;;;;;;2.58;1.58;;;13.20;79.20;;;;;;5083627;28;27365;-70
2021/05/26 06:42:15;;;;;;;2.17;1.27;;;13.20;79.40;;;;;;5083635;28;27391;-70
2021/05/26 06:45:05;;;;;;;3.08;1.58;;;13.20;79.70;;;;;;5085710;28;27503;-70
2021/05/26 06:47:58;;;;;;;6.15;3.45;;;13.20;79.50;;;;;;5087756;28;27371;-70
2021/05/26 06:50:51;;;;;;;7.07;2.78;;;13.30;79.90;;;;;;5086257;28;27592;-70
2021/05/26 06:53:47;;;;;;;3.35;2.33;;;13.30;80.20;;;;;;5084280;28;27486;-70
2021/05/26 06:56:38;;;;;;;5.82;2.80;;;13.30;80.00;;;;;;5087470;28;27422;-70
2021/05/26 06:59:29;;;;;;;5.63;2.17;;;13.40;80.30;;;;;;5087289;28;27470;-70
2021/05/26 07:02:19;;;;;;;5.18;2.00;;;13.40;80.60;;;;;;5087310;28;27378;-74
2021/05/26 07:05:24;;;;;;;3.65;2.15;;;13.40;80.70;;;;;;5087266;28;27423;-71
2021/05/26 07:08:14;;;;;;;5.82;1.25;;;13.50;80.80;;;;;;5086421;28;27455;-70
2021/05/26 07:11:06;;;;;;;3.38;1.58;;;13.50;80.90;;;;;;5087129;28;27406;-71
2021/05/26 07:14:41;;;;;;;4.10;1.65;;;13.50;80.60;;;;;;5083807;28;27365;-72
2021/05/26 07:17:32;;;;;;;4.32;2.60;;;13.60;81.00;;;;;;5086929;28;27945;-70
2021/05/26 07:20:29;;;;;;;3.55;2.20;;;13.70;81.70;;;;;;5086854;28;27489;-70
2021/05/26 07:23:21;;;;;;;6.28;2.00;;;13.70;81.00;;;;;;5086747;28;27458;-71
2021/05/26 07:26:11;;;;;;;4.50;1.38;;;13.70;80.40;;;;;;5086101;28;27377;-70
2021/05/26 07:29:09;;;;;;;5.82;2.20;;;13.80;80.50;;;;;;5086492;28;27394;-70
2021/05/26 07:32:00;;;;;;;5.07;1.90;;;13.80;80.90;;;;;;5082796;28;27446;-70
2021/05/26 07:34:50;;;;;;;8.75;2.83;;;13.80;80.50;;;;;;5083053;28;27440;-71
2021/05/26 07:38:04;;;;;;;7.50;2.17;;;13.80;80.40;;;;;;5086598;28;27336;-71
2021/05/26 07:40:55;;;;;;;4.80;1.95;;;13.90;80.20;;;;;;5086822;28;27856;-69
2021/05/26 07:43:51;;;;;;;7.68;1.92;;;13.90;80.20;;;;;;5086541;28;27447;-70
2021/05/26 07:47:04;;;;;;;9.73;1.83;;;13.90;79.40;;;;;;5086757;28;27442;-70
2021/05/26 07:50:00;;;;;;;5.20;1.80;;;14.00;80.10;;;;;;5085460;28;27382;-70
2021/05/26 07:52:51;;;;;;;5.47;1.73;;;14.00;79.10;;;;;;5086470;28;27431;-71
2021/05/26 07:55:43;;;;;;;6.50;1.52;;;14.00;79.10;;;;;;5086360;28;27344;-73
2021/05/26 07:58:40;;;;;;;6.63;2.00;;;14.00;79.00;;;;;;5086303;28;27384;-72
2021/05/26 08:01:31;;;;;;;9.45;2.05;;;14.00;78.80;;;;;;5086362;28;27391;-70
2021/05/26 08:04:22;;;;;;;4.65;1.80;;;14.10;78.10;;;;;;5086257;28;27545;-72
2021/05/26 08:07:15;;;;;;;4.05;1.77;;;14.10;78.70;;;;;;5086001;28;27389;-71
2021/05/26 08:10:12;;;;;;;5.38;1.90;;;14.20;78.10;;;;;;5085861;28;27379;-71
2021/05/26 08:13:10;;;;;;;6.05;1.63;;;14.20;78.40;;;;;;5085704;28;27485;-71
2021/05/26 08:16:00;;;;;;;8.15;2.08;;;14.20;78.40;;;;;;5085041;28;27591;-71
2021/05/26 08:18:51;;;;;;;7.25;2.03;;;14.20;78.30;;;;;;5085619;28;27394;-71
2021/05/26 08:21:48;;;;;;;5.07;1.83;;;14.30;78.60;;;;;;5085984;28;27455;-71
2021/05/26 08:24:39;;;;;;;6.10;2.15;;;14.30;78.50;;;;;;5085659;28;27378;-70
2021/05/26 08:27:53;;;;;;;4.63;2.00;;;14.30;77.90;;;;;;5084439;28;27489;-71
2021/05/26 08:31:03;;;;;;;7.18;1.70;;;14.30;78.30;;;;;;5084534;28;27476;-73
2021/05/26 08:33:54;;;;;;;8.63;1.77;;;14.30;77.40;;;;;;5085778;28;27392;-71
2021/05/26 08:36:48;;;;;;;4.97;1.80;;;14.30;77.60;;;;;;5085551;28;27446;-71
2021/05/26 08:39:37;;;;;;;4.30;1.48;;;14.30;77.40;;;;;;5069752;28;27584;-73
2021/05/26 08:42:28;;;;;;;4.18;1.58;;;14.30;77.70;;;;;;5085133;28;27577;-72
2021/05/26 08:45:35;;;;;;;5.55;1.63;;;14.30;78.20;;;;;;5085229;28;27420;-71
2021/05/26 08:48:26;;;;;;;6.15;2.20;;;14.30;78.20;;;;;;5085337;28;27449;-72
2021/05/26 08:51:24;;;;;;;9.20;2.28;;;14.30;77.70;;;;;;5085555;28;27375;-72
2021/05/26 08:54:29;;;;;;;8.88;2.17;;;14.30;77.90;;;;;;5084028;28;27521;-71
2021/05/26 08:57:38;;;;;;;3.80;2.10;;;14.30;78.00;;;;;;5085191;28;27470;-72
2021/05/26 09:00:28;;;;;;;6.43;2.22;;;14.40;78.30;;;;;;5085460;28;27367;-71
2021/05/26 09:03:20;;;;;;;5.75;1.80;;;14.40;78.20;;;;;;5085615;28;27498;-72
2021/05/26 09:06:42;;;;;;;7.35;2.90;;;14.40;78.30;;;;;;5085273;28;27508;-71
2021/05/26 09:09:47;;;;;;;3.47;2.08;;;14.50;78.30;;;;;;5084468;28;27398;-71
2021/05/26 09:12:43;;;;;;;6.38;2.92;;;14.50;78.00;;;;;;5084742;28;27418;-73
2021/05/26 09:15:39;;;;;;;5.95;2.88;;;14.60;78.40;;;;;;5084963;28;27312;-72
2021/05/26 09:19:18;;;;;;;5.40;2.50;;;14.60;78.40;;;;;;5084822;28;27348;-72
2021/05/26 09:22:34;;;;;;;7.72;3.10;;;14.70;78.30;;;;;;5084783;28;27536;-71
2021/05/26 09:25:27;;;;;;;7.43;2.05;;;14.70;78.80;;;;;;5084499;28;27477;-71
2021/05/26 09:28:33;;;;;;;3.13;1.80;;;14.70;78.60;;;;;;5084760;28;27331;-72
2021/05/26 09:31:35;;;;;;;6.55;3.05;;;14.80;78.90;;;;;;5085065;28;27474;-71
2021/05/26 09:34:47;;;;;;;8.10;4.82;;;14.80;78.30;;;;;;5084353;28;27562;-71
2021/05/26 09:37:40;;;;;;;6.90;2.80;;;14.80;78.10;;;;;;5084218;28;27403;-71
2021/05/26 09:40:31;;;;;;;3.25;1.73;;;14.90;78.50;;;;;;5084541;28;27403;-70
2021/05/26 09:43:38;;;;;;;2.95;1.67;;;14.90;78.20;;;;;;5083800;28;27387;-70
2021/05/26 09:46:31;;;;;;;6.93;1.85;;;15.00;77.30;;;;;;5085094;28;27481;-71
2021/05/26 09:49:17;;;;;;;3.90;1.30;;;15.00;77.40;;;;;;5084567;28;27383;-72
2021/05/26 09:52:09;;;;;;;2.75;1.35;;;15.00;77.10;;;;;;5084244;28;27403;-71
2021/05/26 09:55:03;;;;;;;3.45;1.38;;;15.00;76.90;;;;;;5083491;28;27420;-71
2021/05/26 09:57:54;;;;;;;5.15;1.67;;;15.10;77.10;;;;;;5061725;28;27372;-72
2021/05/26 10:00:45;;;;;;;2.88;1.48;;;15.10;76.50;;;;;;5062659;28;27332;-71
2021/05/26 10:03:42;;;;;;;4.78;1.65;;;15.10;77.20;;;;;;5062352;28;27455;-71
2021/05/26 10:06:34;;;;;;;3.72;1.20;;;15.10;72.80;;;;;;5048095;28;27377;-71
2021/05/26 10:09:45;;;;;;;4.78;1.90;;;15.20;71.80;;;;;;5061988;28;27357;-69
2021/05/26 10:13:13;;;;;;;5.93;2.97;;;15.20;71.10;;;;;;5063224;28;27502;-71
2021/05/26 10:16:26;;;;;;;6.60;2.38;;;15.10;71.20;;;;;;5045195;28;27920;-71
2021/05/26 10:19:36;;;;;;;5.60;1.73;;;15.20;73.70;;;;;;5062821;28;27512;-71
2021/05/26 10:22:49;;;;;;;3.30;1.30;;;15.20;75.00;;;;;;5066041;28;26988;-72
2021/05/26 10:26:14;;;;;;;7.13;1.80;;;15.20;75.30;;;;;;5064601;28;27661;-71
2021/05/26 10:29:23;;;;;;;6.15;1.95;;;15.30;76.10;;;;;;5080089;28;27873;-70
2021/05/26 10:32:17;;;;;;;2.88;1.27;;;15.30;76.30;;;;;;5084951;28;27411;-70
2021/05/26 10:35:58;;;;;;;3.33;1.40;;;15.30;70.40;;;;;;5084077;28;27368;-69
2021/05/26 10:39:24;;;;;;;3.67;1.63;;;15.30;70.60;;;;;;5087857;28;27304;-70
2021/05/26 10:42:31;;;;;;;6.10;1.58;;;15.20;70.70;;;;;;5087058;28;27374;-70
2021/05/26 10:45:52;;;;;;;2.83;1.55;;;15.10;74.00;;;;;;5087253;28;27367;-71
2021/05/26 10:48:51;;;;;;;4.07;1.25;;;15.10;74.90;;;;;;5087532;28;27406;-70
2021/05/26 10:51:58;;;;;;;6.65;2.58;;;15.10;74.60;;;;;;5087381;28;27479;-69
2021/05/26 10:54:53;;;;;;;2.15;1.15;;;15.10;76.50;;;;;;5087337;28;27932;-70
2021/05/26 10:58:14;;;;;;;8.38;2.45;;;15.20;77.30;;;;;;5086784;28;27411;-71
2021/05/26 11:01:24;;;;;;;4.28;1.13;;;15.20;75.00;;;;;;5087301;28;27336;-72
2021/05/26 11:04:30;;;;;;;4.40;1.55;;;15.20;76.90;;;;;;5087293;28;27458;-72
2021/05/26 11:07:35;;;;;;;4.10;1.17;;;15.30;76.90;;;;;;5087447;28;27407;-72
2021/05/26 11:10:47;;;;;;;1.90;1.10;;;15.30;77.00;;;;;;5083978;28;27362;-72
2021/05/26 11:14:03;;;;;;;1.83;1.02;;;15.40;77.40;;;;;;5087308;28;27543;-72
2021/05/26 11:16:51;;;;;;;3.15;1.00;;;15.40;77.30;;;;;;5086532;28;27434;-71
2021/05/26 11:19:54;;;;;;;3.13;1.10;;;15.50;77.70;;;;;;5086951;28;27840;-71
2021/05/26 11:22:48;;;;;;;5.18;1.42;;;15.50;77.20;;;;;;5083598;28;27411;-73
2021/05/26 11:26:10;;;;;;;2.28;1.20;;;15.50;77.80;;;;;;5071602;28;27442;-69
2021/05/26 11:29:24;;;;;;;2.45;1.13;;;15.50;77.30;;;;;;5086912;28;27449;-74
2021/05/26 11:32:31;;;;;;;2.80;1.17;;;15.50;77.30;;;;;;5057616;28;27396;-73
2021/05/26 11:35:27;;;;;;;3.55;1.55;;;15.50;77.80;;;;;;5086863;28;27388;-72
2021/05/26 11:38:42;;;;;;;2.05;1.00;;;15.50;77.40;;;;;;5086569;28;27507;-71
2021/05/26 11:41:29;;;;;;;1.92;1.35;;;15.60;77.70;;;;;;5086719;28;27392;-72
2021/05/26 11:44:20;;;;;;;4.00;1.25;;;15.60;79.00;;;;;;5085731;28;27487;-71
2021/05/26 11:47:14;;;;;;;4.38;1.27;;;15.60;78.10;;;;;;5086127;28;27398;-71
2021/05/26 11:50:14;;;;;;;2.20;1.05;;;15.60;78.70;;;;;;5070969;28;27473;-71
2021/05/26 11:53:03;;;;;;;2.90;1.38;;;15.60;78.50;;;;;;5086175;28;27407;-72
2021/05/26 11:56:00;;;;;;;2.40;1.17;;;15.60;78.40;;;;;;5086381;28;27466;-71
2021/05/26 11:58:57;;;;;;;4.30;1.40;;;15.60;78.60;;;;;;5086468;28;27345;-72
2021/05/26 12:02:05;;;;;;;3.75;1.42;;;15.60;78.00;;;;;;5086437;28;27411;-72
2021/05/26 12:04:56;;;;;;;3.75;1.52;;;15.70;78.30;;;;;;5114128;27;27584;-72
2021/05/26 12:08:09;;;;;;;4.20;3.10;;;15.70;77.80;;;;;;5085515;28;27442;-71
2021/05/26 12:11:02;;;;;;;2.67;1.58;;;15.80;78.40;;;;;;5083947;28;27434;-72
2021/05/26 12:14:18;;;;;;;2.45;1.65;;;15.80;78.20;;;;;;5083070;28;27467;-72
2021/05/26 12:17:09;;;;;;;2.67;1.80;;;15.90;77.20;;;;;;5085743;28;27336;-70
2021/05/26 12:20:04;;;;;;;5.13;1.42;;;15.90;77.40;;;;;;5084645;28;27915;-71
2021/05/26 12:22:58;;;;;;;1.45;1.33;;;16.00;78.50;;;;;;5086245;28;27470;-72
2021/05/26 12:26:09;;;;;;;2.65;1.30;;;16.10;79.10;;;;;;5085665;28;27457;-73
2021/05/26 12:29:06;;;;;;;1.20;1.00;;;16.30;80.70;;;;;;5085315;28;27434;-73
2021/05/26 12:32:02;;;;;;;4.20;1.13;;;16.40;79.00;;;;;;5086026;28;27407;-72
2021/05/26 12:34:58;;;;;;;1.80;1.20;;;16.50;79.00;;;;;;5057341;28;27521;-72
2021/05/26 12:37:58;;;;;;;2.97;1.40;;;16.60;79.90;;;;;;5085759;28;27486;-73
2021/05/26 12:41:24;;;;;;;2.47;1.30;;;16.70;79.80;;;;;;5082232;28;27438;-71
2021/05/26 12:44:15;;;;;;;2.83;1.30;;;16.80;79.00;;;;;;5085763;28;27335;-72
2021/05/26 12:47:14;;;;;;;2.50;1.20;;;16.80;78.60;;;;;;5084961;28;27430;-72
2021/05/26 12:50:30;;;;;;;2.08;1.33;;;16.90;78.80;;;;;;5085308;28;27336;-72
2021/05/26 12:53:21;;;;;;;2.60;1.33;;;16.90;77.50;;;;;;5085980;28;27341;-72
2021/05/26 12:56:17;;;;;;;3.40;1.20;;;17.00;77.40;;;;;;5085648;28;28023;-72
2021/05/26 12:59:14;;;;;;;4.43;1.20;;;17.10;77.50;;;;;;5084710;28;27496;-72
2021/05/26 13:02:12;;;;;;;2.17;1.25;;;17.10;76.80;;;;;;5084143;28;27364;-71
2021/05/26 13:05:39;;;;;;;2.17;1.48;;;17.20;77.70;;;;;;5085260;28;27569;-73
2021/05/26 13:09:18;;;;;;;4.20;1.70;;;17.30;77.80;;;;;;5085077;28;27489;-72
2021/05/26 13:12:57;;;;;;;2.25;1.23;;;17.40;77.00;;;;;;5084807;28;27676;-73
2021/05/26 13:16:11;;;;;;;2.25;1.10;;;17.50;76.30;;;;;;5084076;28;27361;-72
2021/05/26 13:19:18;;;;;;;4.35;1.10;;;17.50;74.70;;;;;;5084614;28;27405;-73
2021/05/26 13:22:05;;;;;;;1.67;0.88;;;17.50;75.60;;;;;;5084415;28;27836;-71
2021/05/26 13:25:27;;;;;;;2.15;0.98;;;17.50;75.00;;;;;;5084315;28;27431;-72
2021/05/26 13:28:38;;;;;;;2.20;1.15;;;17.50;75.30;;;;;;5084538;28;27573;-71
2021/05/26 13:31:31;;;;;;;1.90;0.98;;;17.50;74.40;;;;;;5084503;28;27357;-71
2021/05/26 13:35:00;;;;;;;5.95;2.10;;;17.50;74.00;;;;;;5069333;28;28646;-75
2021/05/26 13:38:07;;;;;;;1.50;1.00;;;17.40;67.70;;;;;;5084184;28;27412;-72
2021/05/26 13:41:07;;;;;;;2.42;1.20;;;17.40;68.80;;;;;;5084452;28;27383;-71
2021/05/26 13:44:19;;;;;;;2.75;1.08;;;17.40;71.10;;;;;;5084557;28;27408;-72
2021/05/26 13:47:09;;;;;;;4.18;0.98;;;17.40;72.20;;;;;;5084744;28;27994;-69
2021/05/26 13:50:00;;;;;;;2.67;1.10;;;17.40;72.40;;;;;;5084412;28;27465;-69
2021/05/26 13:52:56;;;;;;;3.05;0.90;;;17.40;67.10;;;;;;5084262;28;27375;-71
2021/05/26 13:55:52;;;;;;;2.55;1.13;;;17.40;70.80;;;;;;5084329;28;27466;-71
2021/05/26 13:58:49;;;;;;;4.90;1.05;;;17.50;71.60;;;;;;5084190;28;27449;-71
2021/05/26 14:01:47;;;;;;;3.92;1.02;;;17.50;72.40;;;;;;5084246;28;27328;-71
2021/05/26 14:05:04;;;;;;;4.18;1.10;;;17.50;74.10;;;;;;5084300;28;27397;-71
2021/05/26 14:07:57;;;;;;;13.25;2.65;;;17.60;74.70;;;;;;5081903;28;27445;-71
2021/05/26 14:10:55;;;;;;;11.48;2.58;;;17.60;75.40;;;;;;5068794;28;27443;-71
2021/05/26 14:13:53;;;;;;;8.02;1.90;;;17.60;75.40;;;;;;5082695;28;27467;-71
2021/05/26 14:16:43;;;;;;;9.77;2.03;;;17.70;75.00;;;;;;5082505;28;27404;-71
2021/05/26 14:19:37;;;;;;;6.88;1.45;;;17.70;74.80;;;;;;5082362;28;27518;-71
2021/05/26 14:23:04;;;;;;;3.40;1.40;;;17.80;76.40;;;;;;5068221;28;27615;-71
2021/05/26 14:26:04;;;;;;;3.30;1.10;;;17.90;75.40;;;;;;5080774;28;27619;-71
2021/05/26 14:29:06;;;;;;;1.58;0.90;;;18.00;75.60;;;;;;5082767;28;27559;-70
2021/05/26 14:32:06;;;;;;;6.72;1.42;;;18.10;74.90;;;;;;5081238;28;27403;-70
2021/05/26 14:34:59;;;;;;;2.40;1.15;;;18.20;76.20;;;;;;5067619;28;27671;-71
2021/05/26 14:38:07;;;;;;;2.03;0.80;;;18.30;76.50;;;;;;5082234;28;27376;-71
2021/05/26 14:40:58;;;;;;;5.63;0.90;;;18.30;76.60;;;;;;5081996;28;27539;-71
2021/05/26 14:43:43;;;;;;;4.03;0.95;;;18.30;75.90;;;;;;5082072;28;27376;-75
2021/05/26 14:46:33;;;;;;;2.80;1.08;;;18.20;76.10;;;;;;5082059;28;27911;-70
2021/05/26 14:49:48;;;;;;;3.67;1.55;;;18.10;77.80;;;;;;5081830;28;27546;-72
2021/05/26 14:53:00;;;;;;;2.35;1.27;;;18.10;77.20;;;;;;5081498;28;27603;-71
2021/05/26 14:55:44;;;;;;;3.25;1.40;;;18.00;76.90;;;;;;5082066;28;27442;-77
2021/05/26 14:58:49;;;;;;;4.15;1.40;;;17.90;78.30;;;;;;5077797;28;27855;-71
2021/05/26 15:01:40;;;;;;;4.95;1.63;;;17.90;77.80;;;;;;5083474;28;27451;-71
2021/05/26 15:04:45;;;;;;;2.28;1.20;;;17.80;77.10;;;;;;5080571;28;27404;-71
2021/05/26 15:07:29;;;;;;;3.85;1.52;;;17.70;76.30;;;;;;5086900;28;27401;-76
2021/05/26 15:10:20;;;;;;;2.92;0.98;;;17.60;75.90;;;;;;5086837;28;27420;-71
2021/05/26 15:13:17;;;;;;;1.88;1.05;;;17.50;75.00;;;;;;5086812;28;27340;-70
2021/05/26 15:16:09;;;;;;;3.60;1.27;;;17.40;75.10;;;;;;5087195;28;27389;-69
2021/05/26 15:19:00;;;;;;;1.83;1.05;;;17.30;75.90;;;;;;5086750;28;27360;-69
2021/05/26 15:21:55;;;;;;;3.13;1.30;;;17.30;75.20;;;;;;5086731;28;27432;-69
2021/05/26 15:24:55;;;;;;;3.30;1.20;;;17.20;74.90;;;;;;5086650;28;27338;-70
2021/05/26 15:27:53;;;;;;;1.70;1.17;;;17.10;75.40;;;;;;5085999;28;27430;-70
2021/05/26 15:31:03;;;;;;;1.67;1.00;;;17.00;76.50;;;;;;5085276;28;27419;-69
2021/05/26 15:34:09;;;;;;;3.75;1.25;;;16.90;76.10;;;;;;5086312;28;27383;-69
2021/05/26 15:37:22;;;;;;;4.95;1.00;;;16.80;75.60;;;;;;5086374;28;27399;-70
2021/05/26 15:40:18;;;;;;;2.03;1.42;;;16.80;76.20;;;;;;5086724;28;27331;-69
2021/05/26 15:43:08;;;;;;;4.30;1.50;;;16.70;76.80;;;;;;5086377;28;27476;-69
2021/05/26 15:46:17;;;;;;;2.92;2.20;;;16.70;76.80;;;;;;5086266;28;27856;-70